Terminal Aerodrome Forecast
Issued by NWS Louisville, KY

Home | Current Version | Previous Version | Text Only | Print | Product List | Glossary On
Versions: 1 2 3 4 5 6 7 8 9 10 11 12 13 14 15 16 17 18 19 20
000
FTUS43 KLMK 231720
TAFBWG
TAF
KBWG 231720Z 2318/2418 04010KT 5SM -RA BR SCT025 OVC060
      TEMPO 2318/2322 BKN015
     FM240000 01009KT P6SM VCSH OVC025
     FM240800 05007KT 4SM BR OVC020=

USA.gov is the U.S. government's official web portal to all federal, state and local government web resources and services.